Valhermoso Sp, Alabama
Current Conditions -  °F | °C
As of 3:29 AM on Sunday 26 Oct 2014 (Local Time) from KHSV Reporting Station
Haze Haze  
Wind Chill: 57°   Ceiling: Unl
Heat Index: 57°   Visibility: 6mi
Dew Point: 55°   Wind: 0mph
Humidity: 94%   Direction: NA
Pressure: 30.02"   Gusts: NA
Location:  34.5494°N, 86.6929°W
Report Text: KHSV 260829Z AUTO 00000KT 6SM R18R/2000VP6000FT BR CLR 14/13 A3002 RMK AO2
Loading
Personal Weather Stations






























Interactive Weather Map
Tropical Storm Tracking
New forecast layout! Learn more

10-Day Weather Forecast

Advertisements
Track Severe Weather on mobile